createdAt,value
2023-03-22T00:00:22.313Z,24.27
2023-03-22T00:03:17.380Z,23.30
2023-03-22T00:06:14.395Z,28.17
2023-03-22T00:08:48.434Z,21.75
2023-03-22T00:11:36.302Z,24.85
2023-03-22T00:14:18.272Z,17.90
2023-03-22T00:17:05.283Z,26.58
2023-03-22T00:19:48.289Z,25.90
2023-03-22T00:22:42.267Z,22.83
2023-03-22T00:25:30.308Z,24.17
2023-03-22T00:28:03.556Z,24.45
2023-03-22T00:30:58.280Z,21.13
2023-03-22T00:33:32.354Z,17.70
2023-03-22T00:36:19.270Z,17.98
2023-03-22T00:38:52.427Z,20.08
2023-03-22T00:41:39.293Z,18.15
2023-03-22T00:44:12.457Z,20.88
2023-03-22T00:47:00.310Z,22.35
2023-03-22T00:49:41.294Z,23.25
2023-03-22T00:52:39.303Z,22.88
2023-03-22T00:55:26.324Z,18.30
2023-03-22T00:58:00.442Z,23.02
2023-03-22T01:00:47.296Z,20.00
2023-03-22T01:03:22.378Z,23.88
2023-03-22T01:06:09.351Z,17.75
2023-03-22T01:08:43.401Z,27.30
2023-03-22T01:11:31.348Z,16.90
2023-03-22T01:14:05.416Z,22.35
2023-03-22T01:16:52.313Z,22.80
2023-03-22T01:19:35.281Z,16.15
2023-03-22T01:22:22.263Z,19.48
2023-03-22T01:25:03.278Z,19.05
2023-03-22T01:27:50.283Z,17.77
2023-03-22T01:30:24.382Z,16.17
2023-03-22T01:33:14.285Z,22.55
2023-03-22T01:35:56.344Z,21.27
2023-03-22T01:38:51.276Z,12.65
2023-03-22T01:41:41.315Z,21.83
2023-03-22T01:44:24.282Z,18.90
2023-03-22T01:47:11.243Z,18.35
2023-03-22T01:49:46.429Z,15.52
2023-03-22T01:52:35.279Z,21.13
2023-03-22T01:55:16.290Z,18.02
2023-03-22T01:58:03.307Z,14.68
2023-03-22T02:00:37.705Z,22.85
2023-03-22T02:03:29.326Z,14.40
2023-03-22T02:06:10.568Z,14.43
2023-03-22T02:08:53.296Z,13.60
2023-03-22T02:11:38.575Z,16.98
2023-03-22T02:14:35.277Z,15.25
2023-03-22T02:17:33.375Z,15.75
2023-03-22T02:20:53.272Z,13.73
2023-03-22T02:24:08.265Z,16.08
2023-03-22T02:26:55.015Z,13.60
2023-03-22T02:29:52.297Z,12.30
2023-03-22T02:33:14.284Z,16.20
2023-03-22T02:36:20.453Z,12.80
2023-03-22T02:39:14.516Z,15.00
2023-03-22T02:42:22.295Z,14.23
2023-03-22T02:45:01.478Z,15.90
2023-03-22T02:48:18.255Z,14.98
2023-03-22T02:50:58.345Z,16.98
2023-03-22T02:53:44.254Z,13.30
2023-03-22T02:56:32.367Z,11.82
2023-03-22T02:59:15.290Z,10.98
2023-03-22T03:01:58.436Z,13.30
2023-03-22T03:04:43.330Z,11.40
2023-03-22T03:07:34.292Z,12.35
2023-03-22T03:10:16.290Z,11.88
2023-03-22T03:13:13.275Z,13.27
2023-03-22T03:16:10.280Z,17.55
2023-03-22T03:19:05.252Z,11.82
2023-03-22T03:21:54.365Z,9.80
2023-03-22T03:24:40.238Z,12.50
2023-03-22T03:27:24.322Z,14.98
2023-03-22T03:30:11.251Z,13.27
2023-03-22T03:33:06.266Z,13.88
2023-03-22T03:35:44.089Z,15.50
2023-03-22T03:38:35.250Z,11.40
2023-03-22T03:41:19.255Z,13.68
2023-03-22T03:44:01.341Z,14.10
2023-03-22T03:46:43.263Z,10.88
2023-03-22T03:49:30.240Z,12.60
2023-03-22T03:52:05.296Z,15.38
2023-03-22T03:54:52.275Z,14.80
2023-03-22T03:57:25.778Z,14.55
2023-03-22T04:00:12.242Z,13.15
2023-03-22T04:02:47.225Z,13.90
2023-03-22T04:05:34.206Z,14.00
2023-03-22T04:08:08.451Z,12.80
2023-03-22T04:10:55.213Z,14.68
2023-03-22T04:13:42.227Z,11.88
2023-03-22T04:16:31.318Z,9.32
2023-03-22T04:19:06.352Z,9.70
2023-03-22T04:21:53.324Z,10.27
2023-03-22T04:24:35.284Z,9.30
2023-03-22T04:27:30.235Z,8.15
2023-03-22T04:30:25.195Z,15.35
2023-03-22T04:33:05.238Z,17.00
2023-03-22T04:36:04.598Z,12.23
2023-03-22T04:38:58.231Z,16.48
2023-03-22T04:41:45.240Z,14.45
2023-03-22T04:44:19.437Z,10.75
2023-03-22T04:47:06.286Z,13.82
2023-03-22T04:49:47.214Z,13.60
2023-03-22T04:52:42.268Z,16.20
2023-03-22T04:55:36.240Z,12.50
2023-03-22T04:58:23.181Z,16.08
2023-03-22T05:01:05.208Z,12.88
2023-03-22T05:03:59.198Z,17.52
2023-03-22T05:06:46.286Z,13.02
2023-03-22T05:09:28.275Z,9.25
2023-03-22T05:12:08.219Z,11.07
2023-03-22T05:15:02.176Z,18.73
2023-03-22T05:17:49.228Z,10.68
2023-03-22T05:20:23.356Z,12.38
2023-03-22T05:23:11.176Z,9.98
2023-03-22T05:25:46.837Z,15.50
2023-03-22T05:28:35.200Z,10.90
2023-03-22T05:31:17.296Z,8.63
2023-03-22T05:34:04.228Z,15.70
2023-03-22T05:36:45.228Z,16.48
2023-03-22T05:39:39.256Z,14.82
2023-03-22T05:42:27.294Z,12.43
2023-03-22T05:45:01.313Z,17.13
2023-03-22T05:47:48.226Z,10.80
2023-03-22T05:50:24.362Z,13.10
2023-03-22T05:53:11.220Z,15.93
2023-03-22T05:55:45.300Z,14.95
2023-03-22T05:58:37.249Z,13.02
2023-03-22T06:01:24.258Z,14.00
2023-03-22T06:04:18.213Z,10.75
2023-03-22T06:07:12.261Z,10.13
2023-03-22T06:10:06.204Z,12.90
2023-03-22T06:13:02.277Z,15.00
2023-03-22T06:15:51.408Z,11.02
2023-03-22T06:18:25.479Z,8.93
2023-03-22T06:21:13.196Z,9.70
2023-03-22T06:23:53.257Z,9.05
2023-03-22T06:26:47.219Z,11.18
2023-03-22T06:29:34.188Z,9.77
2023-03-22T06:32:09.281Z,8.65
2023-03-22T06:34:56.224Z,8.98
2023-03-22T06:37:32.590Z,12.25
2023-03-22T06:40:19.227Z,10.07
2023-03-22T06:42:54.430Z,10.10
2023-03-22T06:45:42.331Z,9.88
2023-03-22T06:48:24.252Z,17.58
2023-03-22T06:54:31.706Z,7.32
2023-03-22T06:56:59.091Z,8.38
2023-03-22T06:59:26.178Z,7.30
2023-03-22T07:01:53.412Z,14.13
2023-03-22T07:04:21.752Z,11.85
2023-03-22T07:06:49.146Z,9.35
2023-03-22T07:09:16.437Z,12.48
2023-03-22T07:11:43.839Z,11.77
2023-03-22T07:14:11.370Z,8.15
2023-03-22T07:16:38.666Z,11.05
2023-03-22T07:19:05.967Z,12.27
2023-03-22T07:21:37.649Z,8.45
2023-03-22T07:24:06.761Z,7.18
2023-03-22T07:26:37.664Z,9.05
2023-03-22T07:29:04.652Z,9.70
2023-03-22T07:31:35.712Z,6.50
2023-03-22T07:34:03.593Z,9.65
2023-03-22T07:36:30.811Z,9.90
2023-03-22T07:38:59.196Z,7.00
2023-03-22T07:41:28.756Z,7.20
2023-03-22T07:44:07.910Z,9.73
2023-03-22T07:46:44.349Z,11.10
2023-03-22T07:49:11.422Z,9.15
2023-03-22T07:51:38.968Z,10.77
2023-03-22T07:54:07.997Z,11.52
2023-03-22T07:56:35.883Z,7.88
2023-03-22T07:59:04.761Z,8.15
2023-03-22T08:01:32.081Z,11.93
2023-03-22T08:03:59.798Z,8.70
2023-03-22T08:06:27.131Z,6.05
2023-03-22T08:08:54.099Z,10.00
2023-03-22T08:11:22.755Z,8.35
2023-03-22T08:13:50.165Z,14.60
2023-03-22T08:16:17.655Z,11.68
2023-03-22T08:18:45.466Z,7.00
2023-03-22T08:21:13.011Z,10.38
2023-03-22T08:23:43.210Z,12.05
2023-03-22T08:26:13.567Z,7.13
2023-03-22T08:28:42.063Z,6.32
2023-03-22T08:31:15.066Z,10.23
2023-03-22T08:33:43.099Z,11.70
2023-03-22T08:36:13.726Z,6.65
2023-03-22T08:38:42.388Z,10.73
2023-03-22T08:41:09.865Z,7.95
2023-03-22T08:43:36.716Z,14.60
2023-03-22T08:46:06.102Z,17.05
2023-03-22T08:48:34.756Z,13.98
2023-03-22T08:53:29.591Z,11.93
2023-03-22T08:55:58.211Z,22.58
2023-03-22T08:58:25.282Z,9.35
2023-03-22T09:00:52.768Z,8.27
2023-03-22T09:03:22.866Z,7.93
2023-03-22T09:05:50.129Z,11.27
2023-03-22T09:08:19.486Z,6.45
2023-03-22T09:10:51.276Z,8.32
2023-03-22T09:13:19.055Z,9.40
2023-03-22T09:15:46.778Z,6.93
2023-03-22T09:18:14.458Z,8.68
2023-03-22T09:20:44.793Z,7.50
2023-03-22T09:23:12.057Z,11.13
2023-03-22T09:25:42.638Z,6.47
2023-03-22T09:28:10.039Z,17.95
2023-03-22T09:30:38.103Z,8.75
2023-03-22T09:33:06.719Z,13.60
2023-03-22T09:35:34.241Z,8.32
2023-03-22T09:38:03.589Z,9.43
2023-03-22T09:40:33.288Z,6.30
2023-03-22T09:43:04.364Z,5.25
2023-03-22T09:45:38.116Z,11.63
2023-03-22T09:48:09.318Z,9.10
2023-03-22T09:50:43.834Z,7.18
2023-03-22T09:53:14.852Z,7.70
2023-03-22T09:55:46.455Z,7.75
2023-03-22T09:58:25.422Z,7.28
2023-03-22T10:00:57.736Z,6.80
2023-03-22T10:03:51.266Z,10.18
2023-03-22T10:06:20.632Z,5.68
2023-03-22T10:08:59.529Z,5.93
2023-03-22T10:11:38.589Z,14.70
2023-03-22T10:14:21.405Z,7.38
2023-03-22T10:16:52.435Z,6.82
2023-03-22T10:19:24.402Z,10.05
2023-03-22T10:21:55.710Z,7.38
2023-03-22T10:24:44.456Z,9.23
2023-03-22T10:27:15.456Z,11.35
2023-03-22T10:29:48.760Z,8.02
2023-03-22T10:32:18.099Z,6.40
2023-03-22T10:34:46.614Z,8.10
2023-03-22T10:37:16.519Z,9.88
2023-03-22T10:39:54.004Z,10.27
2023-03-22T10:42:25.963Z,10.23
2023-03-22T10:44:56.137Z,5.55
2023-03-22T10:47:30.596Z,5.40
2023-03-22T10:50:03.499Z,10.18
2023-03-22T10:52:44.922Z,6.03
2023-03-22T10:55:15.494Z,8.68
2023-03-22T10:57:51.497Z,7.82
2023-03-22T11:00:20.884Z,15.10
2023-03-22T11:02:52.799Z,9.23
2023-03-22T11:05:23.620Z,13.50
2023-03-22T11:07:51.276Z,9.35
2023-03-22T11:10:23.337Z,8.48
2023-03-22T11:12:53.498Z,6.95
2023-03-22T11:15:26.065Z,8.68
2023-03-22T11:17:59.059Z,10.07
2023-03-22T11:20:26.375Z,7.38
2023-03-22T11:22:56.318Z,8.65
2023-03-22T11:25:30.196Z,8.20
2023-03-22T11:28:09.594Z,8.30
2023-03-22T11:30:37.525Z,9.77
2023-03-22T11:33:17.379Z,8.68
2023-03-22T11:35:46.436Z,10.27
2023-03-22T11:38:36.852Z,9.65
2023-03-22T11:41:12.717Z,13.15
2023-03-22T11:43:44.774Z,11.93
2023-03-22T11:46:12.362Z,11.73
2023-03-22T11:48:42.293Z,9.63
2023-03-22T11:51:12.692Z,13.10
2023-03-22T11:53:43.299Z,10.68
2023-03-22T11:56:15.933Z,8.82
2023-03-22T11:58:51.407Z,17.00
2023-03-22T12:01:24.441Z,6.90
2023-03-22T12:03:57.838Z,8.38
2023-03-22T12:06:29.514Z,11.80
2023-03-22T12:09:01.900Z,12.55
2023-03-22T12:11:34.358Z,10.25
2023-03-22T12:14:05.140Z,10.52
2023-03-22T12:16:37.125Z,10.77
2023-03-22T12:19:16.412Z,9.05
2023-03-22T12:21:45.200Z,8.50
2023-03-22T12:24:24.965Z,8.05
2023-03-22T12:26:58.491Z,10.68
2023-03-22T12:29:27.267Z,9.32
2023-03-22T12:32:00.287Z,12.00
2023-03-22T12:34:36.973Z,10.23
2023-03-22T12:37:09.278Z,8.77
2023-03-22T12:39:41.189Z,13.68
2023-03-22T12:42:21.908Z,7.03
2023-03-22T12:45:04.192Z,7.43
2023-03-22T12:47:39.420Z,7.55
2023-03-22T12:50:14.001Z,8.13
2023-03-22T12:52:46.254Z,10.70
2023-03-22T12:55:22.229Z,10.65
2023-03-22T12:57:54.623Z,6.65
2023-03-22T13:00:28.619Z,6.35
2023-03-22T13:03:02.211Z,10.60
2023-03-22T13:05:32.310Z,9.95
2023-03-22T13:08:03.299Z,12.40
2023-03-22T13:10:59.677Z,9.02
2023-03-22T13:13:48.821Z,6.90
2023-03-22T13:16:23.060Z,6.90
2023-03-22T13:19:17.369Z,6.35
2023-03-22T13:21:48.484Z,5.53
2023-03-22T13:24:23.994Z,7.97
2023-03-22T13:26:53.438Z,8.00
2023-03-22T13:29:27.130Z,5.97
2023-03-22T13:31:58.514Z,10.70
2023-03-22T13:34:38.276Z,5.28
2023-03-22T13:37:10.878Z,6.13
2023-03-22T13:39:39.319Z,6.35
2023-03-22T13:44:46.820Z,9.40
2023-03-22T13:47:31.688Z,4.45
2023-03-22T13:50:06.211Z,9.95
2023-03-22T13:52:38.602Z,4.32
2023-03-22T13:55:36.158Z,7.72
2023-03-22T13:58:05.606Z,5.88
2023-03-22T14:00:48.316Z,7.85
2023-03-22T14:03:23.570Z,5.22
2023-03-22T14:06:00.648Z,8.25
2023-03-22T14:08:30.397Z,10.32
2023-03-22T14:11:04.033Z,5.97
2023-03-22T14:13:36.562Z,5.75
2023-03-22T14:16:09.784Z,5.28
2023-03-22T14:18:42.160Z,4.63
2023-03-22T14:21:15.734Z,5.80
